Time;durP1;ratioP1;P1;durP2;ratioP2;P2;SDS_P1;SDS_P2;PMS_P1;PMS_P2;Temp;Humidity;BMP_temperature;BMP_pressure;BME280_temperature;BME280_humidity;BME280_pressure;Samples;Min_cycle;Max_cycle;Signal;HPM_P1;HPM_P2
2024/01/23 00:00:37;;;;;;;12.85;7.60;;;;;;;;;;5043119;28;20484;-69
2024/01/23 00:03:25;;;;;;;12.90;7.55;;;;;;;;;;5040211;28;20044;-68
2024/01/23 00:05:52;;;;;;;13.57;7.03;;;;;;;;;;5050864;28;20075;-68
2024/01/23 00:08:19;;;;;;;15.38;7.13;;;;;;;;;;5040576;28;20061;-67
2024/01/23 00:10:46;;;;;;;20.25;7.78;;;;;;;;;;5046845;28;20051;-69
2024/01/23 00:13:12;;;;;;;14.50;7.45;;;;;;;;;;5045020;28;20053;-68
2024/01/23 00:15:38;;;;;;;13.82;7.65;;;;;;;;;;5044849;28;20041;-71
2024/01/23 00:18:07;;;;;;;10.77;6.50;;;;;;;;;;5045065;28;20507;-69
2024/01/23 00:20:33;;;;;;;10.55;7.05;;;;;;;;;;5048820;28;20120;-67
2024/01/23 00:23:00;;;;;;;11.77;6.75;;;;;;;;;;5049847;28;20319;-68
2024/01/23 00:25:26;;;;;;;17.02;6.53;;;;;;;;;;5053392;28;20048;-69
2024/01/23 00:27:53;;;;;;;11.18;6.30;;;;;;;;;;5047990;28;20052;-69
2024/01/23 00:30:19;;;;;;;11.68;6.20;;;;;;;;;;5051412;28;20045;-68
2024/01/23 00:32:46;;;;;;;10.63;6.10;;;;;;;;;;5046057;28;20413;-68
2024/01/23 00:35:15;;;;;;;11.40;6.60;;;;;;;;;;5049915;28;20107;-67
2024/01/23 00:37:40;;;;;;;11.38;6.55;;;;;;;;;;5051028;28;20512;-68
2024/01/23 00:40:12;;;;;;;12.13;6.50;;;;;;;;;;5037189;28;20152;-67
2024/01/23 00:42:39;;;;;;;17.80;7.10;;;;;;;;;;5046949;28;20056;-67
2024/01/23 00:45:06;;;;;;;11.50;6.57;;;;;;;;;;5030866;28;20118;-68
2024/01/23 00:47:32;;;;;;;11.02;5.93;;;;;;;;;;5053798;28;20041;-68
2024/01/23 00:49:59;;;;;;;9.05;6.50;;;;;;;;;;5035968;28;20061;-66
2024/01/23 00:52:25;;;;;;;12.50;6.30;;;;;;;;;;5065612;28;20052;-68
2024/01/23 00:54:58;;;;;;;12.70;6.85;;;;;;;;;;5052060;28;20266;-67
2024/01/23 00:57:25;;;;;;;14.60;6.55;;;;;;;;;;5057822;28;20063;-67
2024/01/23 00:59:53;;;;;;;9.23;6.13;;;;;;;;;;5054672;28;20053;-68
2024/01/23 01:02:18;;;;;;;12.07;6.38;;;;;;;;;;5062441;28;21686;-68
2024/01/23 01:04:48;;;;;;;9.60;6.10;;;;;;;;;;5030314;28;20045;-67
2024/01/23 01:07:14;;;;;;;10.70;6.18;;;;;;;;;;5044451;28;20394;-69
2024/01/23 01:09:40;;;;;;;9.90;6.57;;;;;;;;;;5040567;28;20131;-73
2024/01/23 01:12:07;;;;;;;10.23;6.68;;;;;;;;;;5044671;28;20048;-71
2024/01/23 01:14:34;;;;;;;10.45;5.72;;;;;;;;;;5039961;28;20094;-68
2024/01/23 01:17:01;;;;;;;10.25;5.97;;;;;;;;;;5036544;28;20548;-67
2024/01/23 01:19:29;;;;;;;11.05;6.10;;;;;;;;;;5055874;28;20049;-66
2024/01/23 01:21:56;;;;;;;11.45;6.10;;;;;;;;;;5048160;28;20056;-67
2024/01/23 01:24:22;;;;;;;10.23;6.00;;;;;;;;;;5036414;28;20446;-68
2024/01/23 01:26:49;;;;;;;10.13;6.05;;;;;;;;;;5053957;28;20048;-67
2024/01/23 01:29:16;;;;;;;9.55;6.32;;;;;;;;;;5041884;28;20053;-70
2024/01/23 01:31:43;;;;;;;15.25;5.75;;;;;;;;;;5037233;28;20362;-66
2024/01/23 01:34:11;;;;;;;10.85;5.50;;;;;;;;;;5042493;28;20397;-69
2024/01/23 01:36:38;;;;;;;8.43;6.00;;;;;;;;;;5038406;28;20390;-66
2024/01/23 01:39:06;;;;;;;12.85;6.15;;;;;;;;;;5038184;28;20368;-66
2024/01/23 01:41:33;;;;;;;12.68;6.00;;;;;;;;;;5043089;28;20049;-66
2024/01/23 01:43:59;;;;;;;9.85;6.10;;;;;;;;;;5057999;28;20405;-67
2024/01/23 01:46:30;;;;;;;8.48;5.47;;;;;;;;;;5040465;28;20063;-67
2024/01/23 01:48:57;;;;;;;9.32;5.60;;;;;;;;;;5034558;28;20368;-67
2024/01/23 01:51:28;;;;;;;11.57;5.57;;;;;;;;;;5053548;28;20049;-67
2024/01/23 01:53:56;;;;;;;10.63;5.60;;;;;;;;;;5029684;28;20482;-67
2024/01/23 01:56:23;;;;;;;11.20;5.97;;;;;;;;;;5039343;28;20059;-66
2024/01/23 01:58:51;;;;;;;10.50;6.70;;;;;;;;;;5036581;28;20122;-67
2024/01/23 02:01:18;;;;;;;10.05;5.25;;;;;;;;;;5038718;28;20048;-66
2024/01/23 02:03:45;;;;;;;9.05;6.38;;;;;;;;;;5041946;28;20061;-66
2024/01/23 02:06:12;;;;;;;10.18;5.85;;;;;;;;;;5036088;28;20041;-66
2024/01/23 02:08:39;;;;;;;11.55;5.53;;;;;;;;;;5063344;28;20056;-66
2024/01/23 02:11:04;;;;;;;9.15;5.40;;;;;;;;;;5041581;28;20049;-67
2024/01/23 02:13:33;;;;;;;10.10;6.40;;;;;;;;;;5032372;28;20258;-67
2024/01/23 02:15:59;;;;;;;9.07;5.88;;;;;;;;;;5038131;28;20631;-67
2024/01/23 02:18:27;;;;;;;8.45;5.40;;;;;;;;;;5046300;28;20053;-69
2024/01/23 02:20:54;;;;;;;8.77;5.13;;;;;;;;;;5037948;28;20052;-67
2024/01/23 02:23:20;;;;;;;13.38;5.85;;;;;;;;;;5040004;28;20060;-67
2024/01/23 02:25:46;;;;;;;10.80;5.80;;;;;;;;;;5013445;28;20053;-67
2024/01/23 02:28:15;;;;;;;8.95;6.18;;;;;;;;;;5041381;28;20408;-67
2024/01/23 02:30:41;;;;;;;9.68;5.80;;;;;;;;;;5039536;28;20053;-66
2024/01/23 02:33:07;;;;;;;12.63;6.35;;;;;;;;;;5052555;28;20125;-65
2024/01/23 02:35:33;;;;;;;11.77;6.20;;;;;;;;;;5038568;28;20152;-68
2024/01/23 02:38:00;;;;;;;8.77;5.97;;;;;;;;;;5045339;28;20064;-67
2024/01/23 02:40:26;;;;;;;12.77;6.45;;;;;;;;;;5039195;28;20045;-66
2024/01/23 02:42:56;;;;;;;10.50;6.40;;;;;;;;;;5042690;28;20064;-67
2024/01/23 02:50:33;;;;;;;11.25;5.60;;;;;;;;;;5443409;22;20069;-65
2024/01/23 02:52:59;;;;;;;12.80;5.85;;;;;;;;;;5061993;28;20080;-64
2024/01/23 02:55:25;;;;;;;9.88;6.25;;;;;;;;;;5046814;28;20073;-64
2024/01/23 02:57:51;;;;;;;10.25;5.70;;;;;;;;;;5051134;28;20041;-64
2024/01/23 03:00:17;;;;;;;8.15;5.43;;;;;;;;;;5046675;28;20045;-63
2024/01/23 03:02:45;;;;;;;7.97;4.97;;;;;;;;;;5048387;28;20453;-64
2024/01/23 03:05:14;;;;;;;9.30;4.68;;;;;;;;;;5064996;28;20049;-64
2024/01/23 03:07:41;;;;;;;9.52;4.63;;;;;;;;;;5050703;28;20044;-64
2024/01/23 03:10:09;;;;;;;7.30;4.88;;;;;;;;;;5043968;28;20648;-64
2024/01/23 03:12:48;;;;;;;8.43;4.35;;;;;;;;;;5060212;28;20162;-64
2024/01/23 03:15:14;;;;;;;9.18;4.90;;;;;;;;;;5045052;28;20199;-64
2024/01/23 03:17:40;;;;;;;6.25;4.35;;;;;;;;;;5036082;28;20033;-63
2024/01/23 03:20:07;;;;;;;7.15;4.70;;;;;;;;;;5036109;28;20387;-64
2024/01/23 03:22:35;;;;;;;7.60;4.50;;;;;;;;;;5046816;28;20037;-64
2024/01/23 03:25:01;;;;;;;5.47;4.07;;;;;;;;;;5048287;28;20107;-64
2024/01/23 03:27:27;;;;;;;9.48;4.38;;;;;;;;;;5049956;28;20141;-64
2024/01/23 03:29:53;;;;;;;5.28;3.78;;;;;;;;;;5046476;28;20159;-66
2024/01/23 03:32:20;;;;;;;6.20;3.75;;;;;;;;;;5046560;28;20148;-64
2024/01/23 03:34:49;;;;;;;6.47;3.80;;;;;;;;;;5051101;28;20072;-64
2024/01/23 03:37:15;;;;;;;4.78;3.50;;;;;;;;;;5048634;28;20056;-65
2024/01/23 03:39:42;;;;;;;5.13;3.35;;;;;;;;;;5064061;28;20045;-64
2024/01/23 03:42:08;;;;;;;5.60;3.38;;;;;;;;;;5041905;28;20132;-64
2024/01/23 03:44:34;;;;;;;5.00;3.33;;;;;;;;;;5049605;28;20144;-64
2024/01/23 03:47:02;;;;;;;5.57;3.60;;;;;;;;;;5042082;28;20052;-64
2024/01/23 03:49:30;;;;;;;5.55;3.40;;;;;;;;;;5035404;28;20048;-66
2024/01/23 03:51:57;;;;;;;5.10;3.42;;;;;;;;;;5047234;28;20048;-64
2024/01/23 03:54:24;;;;;;;9.00;3.60;;;;;;;;;;5040126;28;20052;-64
2024/01/23 03:56:54;;;;;;;7.70;3.67;;;;;;;;;;5051205;28;20033;-64
2024/01/23 03:59:20;;;;;;;4.97;3.47;;;;;;;;;;5041053;28;20049;-64
2024/01/23 04:01:46;;;;;;;5.35;3.70;;;;;;;;;;5042828;28;20064;-63
2024/01/23 04:04:12;;;;;;;4.75;3.33;;;;;;;;;;5049483;28;20511;-65
2024/01/23 04:06:38;;;;;;;6.78;3.85;;;;;;;;;;5046416;28;20447;-64
2024/01/23 04:09:04;;;;;;;6.40;3.60;;;;;;;;;;5041870;28;20072;-63
2024/01/23 04:11:33;;;;;;;6.93;4.32;;;;;;;;;;5038688;28;20080;-65
2024/01/23 04:13:59;;;;;;;8.48;4.55;;;;;;;;;;5046763;28;20416;-64
2024/01/23 04:16:27;;;;;;;7.47;4.63;;;;;;;;;;5050574;28;20060;-65
2024/01/23 04:18:54;;;;;;;7.35;4.43;;;;;;;;;;5048432;28;20496;-65
2024/01/23 04:21:21;;;;;;;6.40;4.38;;;;;;;;;;5044299;28;20409;-64
2024/01/23 04:23:47;;;;;;;7.60;4.22;;;;;;;;;;5043872;28;20095;-65
2024/01/23 04:26:15;;;;;;;7.80;4.80;;;;;;;;;;5048723;28;20037;-64
2024/01/23 04:28:41;;;;;;;9.68;4.38;;;;;;;;;;5049721;28;20049;-64
2024/01/23 04:31:08;;;;;;;7.70;4.47;;;;;;;;;;5044458;28;20049;-63
2024/01/23 04:33:35;;;;;;;7.82;5.10;;;;;;;;;;5050503;28;20400;-65
2024/01/23 04:36:02;;;;;;;6.85;4.82;;;;;;;;;;5044980;28;20130;-65
2024/01/23 04:38:29;;;;;;;7.50;4.57;;;;;;;;;;5036715;28;20127;-68
2024/01/23 04:40:55;;;;;;;7.88;4.57;;;;;;;;;;5043127;28;20067;-64
2024/01/23 04:43:21;;;;;;;6.47;4.40;;;;;;;;;;5045434;28;20049;-65
2024/01/23 04:45:47;;;;;;;8.20;4.78;;;;;;;;;;5038566;28;20569;-64
2024/01/23 04:48:13;;;;;;;7.53;4.50;;;;;;;;;;5045769;28;20044;-63
2024/01/23 04:50:40;;;;;;;6.80;4.70;;;;;;;;;;5063370;28;20124;-64
2024/01/23 04:53:06;;;;;;;7.25;4.60;;;;;;;;;;5043973;28;21357;-64
2024/01/23 04:55:32;;;;;;;10.52;5.05;;;;;;;;;;5037125;28;20053;-64
2024/01/23 04:57:59;;;;;;;7.18;4.43;;;;;;;;;;5047550;28;20049;-65
2024/01/23 05:00:25;;;;;;;7.53;4.68;;;;;;;;;;5042485;28;20041;-64
2024/01/23 05:02:52;;;;;;;5.63;3.95;;;;;;;;;;5049588;28;20044;-64
2024/01/23 05:05:18;;;;;;;9.18;4.80;;;;;;;;;;5045338;28;20059;-64
2024/01/23 05:07:45;;;;;;;7.65;4.70;;;;;;;;;;5037490;28;20075;-66
2024/01/23 05:10:11;;;;;;;6.75;4.38;;;;;;;;;;5045274;28;20182;-66
2024/01/23 05:12:37;;;;;;;7.85;4.78;;;;;;;;;;5047155;28;20048;-65
2024/01/23 05:15:04;;;;;;;6.93;4.60;;;;;;;;;;5030997;28;20049;-65
2024/01/23 05:17:31;;;;;;;8.13;4.18;;;;;;;;;;5040022;28;20082;-64
2024/01/23 05:19:58;;;;;;;8.88;4.43;;;;;;;;;;5046031;28;20124;-65
2024/01/23 05:22:24;;;;;;;6.00;3.60;;;;;;;;;;5038775;28;20129;-64
2024/01/23 05:24:53;;;;;;;5.78;4.15;;;;;;;;;;5045761;28;20041;-65
2024/01/23 05:27:19;;;;;;;6.20;4.18;;;;;;;;;;5060286;28;20053;-64
2024/01/23 05:29:46;;;;;;;6.00;4.47;;;;;;;;;;5039646;28;20045;-64
2024/01/23 05:32:16;;;;;;;11.73;4.60;;;;;;;;;;5045725;28;20561;-65
2024/01/23 05:34:46;;;;;;;5.85;3.83;;;;;;;;;;5033955;28;20105;-65
2024/01/23 05:37:14;;;;;;;8.63;4.50;;;;;;;;;;5045595;28;20125;-64
2024/01/23 05:39:40;;;;;;;9.65;4.53;;;;;;;;;;5046691;28;20037;-64
2024/01/23 05:42:08;;;;;;;6.53;4.43;;;;;;;;;;5042218;28;20045;-66
2024/01/23 05:44:35;;;;;;;10.27;4.00;;;;;;;;;;5045332;28;20052;-65
2024/01/23 05:47:02;;;;;;;11.20;4.22;;;;;;;;;;5040038;28;20052;-65
2024/01/23 05:49:31;;;;;;;7.30;4.00;;;;;;;;;;5034895;28;20073;-65
2024/01/23 05:52:01;;;;;;;7.10;4.32;;;;;;;;;;5044750;28;20049;-64
2024/01/23 05:55:08;;;;;;;6.97;4.40;;;;;;;;;;5042973;28;20044;-63
2024/01/23 05:58:34;;;;;;;6.25;3.70;;;;;;;;;;5039359;28;21642;-63
2024/01/23 06:02:15;;;;;;;8.40;3.72;;;;;;;;;;5046349;28;20171;-65
2024/01/23 06:05:55;;;;;;;7.57;3.42;;;;;;;;;;5047853;28;20077;-65
2024/01/23 06:09:36;;;;;;;8.90;3.47;;;;;;;;;;5047119;28;20139;-64
2024/01/23 06:13:17;;;;;;;9.60;3.45;;;;;;;;;;5047719;28;20098;-65
2024/01/23 06:16:56;;;;;;;7.50;3.08;;;;;;;;;;5040942;28;20055;-66
2024/01/23 06:20:37;;;;;;;5.60;3.17;;;;;;;;;;5047314;28;20132;-66
2024/01/23 06:24:17;;;;;;;8.35;2.88;;;;;;;;;;5042602;28;20160;-64
2024/01/23 06:27:24;;;;;;;7.85;3.30;;;;;;;;;;5049485;28;20045;-65
2024/01/23 06:31:07;;;;;;;9.38;3.58;;;;;;;;;;5035667;28;20095;-65
2024/01/23 06:34:48;;;;;;;7.28;3.63;;;;;;;;;;5040088;28;20045;-66
2024/01/23 06:38:28;;;;;;;5.45;3.60;;;;;;;;;;5043794;28;20044;-64
2024/01/23 06:42:10;;;;;;;5.35;3.20;;;;;;;;;;5045499;28;20051;-65
2024/01/23 06:45:20;;;;;;;9.07;3.60;;;;;;;;;;5044985;28;20159;-65
2024/01/23 06:48:26;;;;;;;6.35;3.83;;;;;;;;;;5045107;28;20146;-64
2024/01/23 06:52:07;;;;;;;5.95;3.38;;;;;;;;;;5049260;28;20052;-65
2024/01/23 06:55:48;;;;;;;6.25;3.80;;;;;;;;;;5045551;28;20513;-65
2024/01/23 06:59:29;;;;;;;9.75;4.25;;;;;;;;;;5049023;28;20059;-63
2024/01/23 07:03:10;;;;;;;12.55;3.60;;;;;;;;;;5049273;28;20540;-65
2024/01/23 07:06:50;;;;;;;11.30;4.00;;;;;;;;;;5046392;28;20044;-66
2024/01/23 07:10:32;;;;;;;8.30;3.55;;;;;;;;;;5050813;28;20037;-63
2024/01/23 07:14:12;;;;;;;11.60;4.10;;;;;;;;;;5037648;28;20071;-65
2024/01/23 07:17:54;;;;;;;10.23;4.15;;;;;;;;;;5042115;28;20041;-64
2024/01/23 07:21:36;;;;;;;18.80;4.60;;;;;;;;;;5048274;28;20106;-67
2024/01/23 07:25:16;;;;;;;14.80;3.88;;;;;;;;;;5051196;28;20032;-64
2024/01/23 07:28:58;;;;;;;13.70;4.20;;;;;;;;;;5049892;28;20048;-63
2024/01/23 07:32:38;;;;;;;9.93;4.20;;;;;;;;;;5041527;28;20084;-65
2024/01/23 07:36:19;;;;;;;16.85;4.00;;;;;;;;;;5041303;28;20041;-66
2024/01/23 07:40:00;;;;;;;8.35;3.78;;;;;;;;;;5048485;28;20083;-66
2024/01/23 07:43:45;;;;;;;13.70;4.22;;;;;;;;;;5052581;28;20052;-66
2024/01/23 07:47:26;;;;;;;10.57;4.55;;;;;;;;;;5045269;28;20076;-71
2024/01/23 07:51:08;;;;;;;12.98;4.25;;;;;;;;;;5046953;28;20106;-64
2024/01/23 07:54:50;;;;;;;18.83;5.28;;;;;;;;;;5050012;28;20523;-66
2024/01/23 07:58:29;;;;;;;22.02;5.65;;;;;;;;;;5049218;28;20095;-67
2024/01/23 08:02:09;;;;;;;14.68;5.78;;;;;;;;;;5047411;28;20451;-66
2024/01/23 08:05:50;;;;;;;13.07;5.57;;;;;;;;;;5044077;28;20507;-63
2024/01/23 08:09:36;;;;;;;15.30;6.53;;;;;;;;;;5040760;28;20045;-65
2024/01/23 08:13:20;;;;;;;13.25;6.07;;;;;;;;;;5045964;28;20037;-65
2024/01/23 08:16:57;;;;;;;13.18;7.50;;;;;;;;;;5046763;28;20049;-64
2024/01/23 08:20:37;;;;;;;13.00;6.85;;;;;;;;;;5047932;28;20476;-64
2024/01/23 08:24:18;;;;;;;11.70;6.65;;;;;;;;;;5037446;28;20036;-64
2024/01/23 08:27:59;;;;;;;14.00;7.40;;;;;;;;;;5043898;28;20128;-67
2024/01/23 08:31:38;;;;;;;16.83;9.90;;;;;;;;;;5047259;28;20108;-67
2024/01/23 08:35:19;;;;;;;21.90;10.52;;;;;;;;;;5043511;28;20044;-65
2024/01/23 08:38:59;;;;;;;24.95;9.25;;;;;;;;;;5049665;28;20059;-65
2024/01/23 08:42:39;;;;;;;14.82;7.20;;;;;;;;;;5047840;28;20107;-64
2024/01/23 08:46:18;;;;;;;11.73;5.18;;;;;;;;;;5040714;28;20080;-65
2024/01/23 08:48:44;;;;;;;10.93;5.63;;;;;;;;;;5047023;28;20236;-66
2024/01/23 08:51:10;;;;;;;13.48;5.57;;;;;;;;;;5048318;28;20090;-63
2024/01/23 08:53:37;;;;;;;20.58;5.68;;;;;;;;;;5047246;28;20044;-64
2024/01/23 08:56:04;;;;;;;17.48;5.25;;;;;;;;;;5042302;28;20507;-65
2024/01/23 08:58:31;;;;;;;27.88;5.78;;;;;;;;;;5046329;28;20051;-63
2024/01/23 09:00:58;;;;;;;12.63;5.65;;;;;;;;;;5047397;28;20057;-64
2024/01/23 09:03:27;;;;;;;13.65;5.28;;;;;;;;;;5047539;28;20110;-63
2024/01/23 09:05:53;;;;;;;9.60;4.97;;;;;;;;;;5047842;28;20049;-64
2024/01/23 09:08:24;;;;;;;12.35;5.15;;;;;;;;;;5048360;28;20041;-65
2024/01/23 09:11:10;;;;;;;10.02;4.72;;;;;;;;;;5038092;28;20060;-65
2024/01/23 09:14:10;;;;;;;15.55;4.57;;;;;;;;;;5039185;28;20044;-65
2024/01/23 09:16:36;;;;;;;13.15;5.45;;;;;;;;;;5046683;28;20498;-64
2024/01/23 09:19:04;;;;;;;17.60;4.85;;;;;;;;;;5047656;28;20139;-65
2024/01/23 09:21:31;;;;;;;12.90;4.40;;;;;;;;;;5049761;28;20522;-63
2024/01/23 09:23:57;;;;;;;15.00;4.20;;;;;;;;;;5065663;28;20045;-64
2024/01/23 09:26:24;;;;;;;9.80;4.30;;;;;;;;;;5047067;28;20072;-67
2024/01/23 09:28:52;;;;;;;12.48;4.68;;;;;;;;;;5045912;28;20124;-64
2024/01/23 09:31:21;;;;;;;7.45;4.43;;;;;;;;;;5046605;28;20053;-66
2024/01/23 09:33:48;;;;;;;12.95;4.40;;;;;;;;;;5047615;28;20068;-64
2024/01/23 09:36:16;;;;;;;8.68;4.50;;;;;;;;;;5048629;28;20056;-65
2024/01/23 09:38:43;;;;;;;10.32;4.30;;;;;;;;;;5049415;28;20049;-64
2024/01/23 09:41:13;;;;;;;7.85;3.83;;;;;;;;;;5045325;28;20052;-63
2024/01/23 09:43:45;;;;;;;10.30;4.10;;;;;;;;;;5045657;28;20404;-65
2024/01/23 09:46:13;;;;;;;7.97;3.53;;;;;;;;;;5049643;28;20053;-63
2024/01/23 09:48:39;;;;;;;10.52;3.70;;;;;;;;;;5052339;28;20056;-64
2024/01/23 09:51:13;;;;;;;9.63;3.47;;;;;;;;;;5053677;28;20059;-65
2024/01/23 09:53:42;;;;;;;7.30;3.40;;;;;;;;;;5054623;28;20124;-64
2024/01/23 09:56:11;;;;;;;9.15;4.35;;;;;;;;;;5052132;28;20160;-65
2024/01/23 09:58:37;;;;;;;9.25;3.63;;;;;;;;;;5051400;28;20037;-64
2024/01/23 10:01:06;;;;;;;8.70;3.80;;;;;;;;;;5047553;28;20120;-64
2024/01/23 10:03:35;;;;;;;6.22;3.05;;;;;;;;;;5054005;28;20055;-65
2024/01/23 10:06:04;;;;;;;10.50;3.40;;;;;;;;;;5052953;28;20072;-68
2024/01/23 10:08:31;;;;;;;7.30;3.58;;;;;;;;;;5051236;28;20492;-64
2024/01/23 10:11:04;;;;;;;6.00;3.80;;;;;;;;;;5053162;28;20103;-64
2024/01/23 10:13:30;;;;;;;6.95;3.80;;;;;;;;;;5048883;28;20500;-66
2024/01/23 10:15:58;;;;;;;6.68;3.90;;;;;;;;;;5049785;28;20113;-65
2024/01/23 10:18:25;;;;;;;13.25;4.00;;;;;;;;;;5053626;28;20056;-66
2024/01/23 10:20:51;;;;;;;7.03;3.53;;;;;;;;;;5054387;28;20060;-66
2024/01/23 10:23:19;;;;;;;5.72;3.10;;;;;;;;;;5054642;28;20069;-65
2024/01/23 10:25:48;;;;;;;6.93;3.20;;;;;;;;;;5055046;28;20068;-64
2024/01/23 10:28:15;;;;;;;6.85;3.70;;;;;;;;;;5054197;28;20072;-64
2024/01/23 10:30:45;;;;;;;10.27;3.03;;;;;;;;;;5051672;28;20056;-67
2024/01/23 10:33:11;;;;;;;5.18;3.05;;;;;;;;;;5053808;28;20052;-65
2024/01/23 10:35:43;;;;;;;4.78;3.20;;;;;;;;;;5052319;28;20511;-67
2024/01/23 10:38:14;;;;;;;8.25;3.00;;;;;;;;;;5054770;28;20044;-64
2024/01/23 10:40:43;;;;;;;5.53;2.60;;;;;;;;;;5051716;28;20064;-65
2024/01/23 10:43:12;;;;;;;7.47;3.58;;;;;;;;;;5049982;28;20056;-65
2024/01/23 10:45:40;;;;;;;10.00;2.85;;;;;;;;;;5048908;28;20622;-69
2024/01/23 10:48:07;;;;;;;5.22;3.15;;;;;;;;;;5045149;28;20650;-66
2024/01/23 10:50:34;;;;;;;5.88;3.05;;;;;;;;;;5049681;28;20057;-63
2024/01/23 10:53:05;;;;;;;6.50;2.90;;;;;;;;;;5050232;28;20099;-64
2024/01/23 10:55:40;;;;;;;4.80;3.00;;;;;;;;;;5047246;28;20515;-64
2024/01/23 10:58:17;;;;;;;4.63;2.72;;;;;;;;;;5049839;28;20055;-63
2024/01/23 11:00:47;;;;;;;9.88;2.78;;;;;;;;;;5047732;28;20044;-66
2024/01/23 11:03:15;;;;;;;6.97;2.95;;;;;;;;;;5051967;28;20102;-65
2024/01/23 11:05:47;;;;;;;6.88;2.95;;;;;;;;;;5048136;28;20048;-64
2024/01/23 11:08:22;;;;;;;5.30;2.80;;;;;;;;;;5050758;28;20037;-64
2024/01/23 11:11:22;;;;;;;8.15;3.15;;;;;;;;;;5051818;28;20102;-65
2024/01/23 11:13:57;;;;;;;5.43;2.72;;;;;;;;;;5036916;28;20102;-66
2024/01/23 11:16:23;;;;;;;5.75;2.42;;;;;;;;;;5050979;28;20317;-68
2024/01/23 11:18:53;;;;;;;8.20;2.67;;;;;;;;;;5029441;28;20139;-70
2024/01/23 11:21:22;;;;;;;3.78;2.22;;;;;;;;;;5052046;28;20349;-65
2024/01/23 11:24:01;;;;;;;4.30;2.40;;;;;;;;;;5051464;28;20053;-65
2024/01/23 11:26:28;;;;;;;6.32;2.72;;;;;;;;;;5050493;28;20125;-64
2024/01/23 11:29:05;;;;;;;4.85;2.42;;;;;;;;;;5050021;28;20049;-66
2024/01/23 11:31:39;;;;;;;8.43;2.38;;;;;;;;;;5049140;28;20063;-67
2024/01/23 11:34:39;;;;;;;4.10;2.28;;;;;;;;;;5049713;28;20712;-65
2024/01/23 11:37:34;;;;;;;4.05;2.40;;;;;;;;;;5016651;28;20056;-64
2024/01/23 11:40:02;;;;;;;;;;;;;;;;;;5049807;28;20040;-64
2024/01/23 11:42:37;;;;;;;5.55;2.30;;;;;;;;;;5047226;28;19924;-65
2024/01/23 11:45:29;;;;;;;6.32;2.08;;;;;;;;;;5049257;28;20048;-64
2024/01/23 11:48:09;;;;;;;4.57;2.40;;;;;;;;;;5047052;28;20250;-65
2024/01/23 11:50:36;;;;;;;4.38;2.10;;;;;;;;;;5047730;28;20136;-65
2024/01/23 11:53:03;;;;;;;3.92;1.92;;;;;;;;;;5048386;28;20057;-68
2024/01/23 11:55:48;;;;;;;3.13;1.77;;;;;;;;;;5046417;28;20053;-64
2024/01/23 11:58:14;;;;;;;2.67;1.50;;;;;;;;;;5049343;28;20068;-63
2024/01/23 12:00:40;;;;;;;5.20;2.47;;;;;;;;;;5047281;28;20043;-65
2024/01/23 12:03:20;;;;;;;11.48;4.05;;;;;;;;;;5049188;28;20041;-66
2024/01/23 12:05:47;;;;;;;15.13;4.78;;;;;;;;;;5041780;28;20302;-65
2024/01/23 12:08:14;;;;;;;15.60;5.15;;;;;;;;;;5045282;28;20055;-64
2024/01/23 12:10:41;;;;;;;13.10;5.50;;;;;;;;;;5042872;28;20359;-63
2024/01/23 12:13:08;;;;;;;8.13;5.30;;;;;;;;;;5042461;28;20488;-65
2024/01/23 12:15:33;;;;;;;17.73;6.18;;;;;;;;;;5045202;28;20103;-67
2024/01/23 12:18:00;;;;;;;14.70;6.45;;;;;;;;;;5046617;28;20048;-65
2024/01/23 12:20:25;;;;;;;10.75;6.40;;;;;;;;;;5048593;28;20053;-66
2024/01/23 12:22:55;;;;;;;13.75;5.85;;;;;;;;;;5046952;28;20045;-66
2024/01/23 12:25:22;;;;;;;9.48;5.75;;;;;;;;;;5050789;28;20041;-64
2024/01/23 12:27:49;;;;;;;20.63;5.75;;;;;;;;;;5049461;28;20049;-67
2024/01/23 12:30:15;;;;;;;14.85;6.60;;;;;;;;;;5046974;28;20095;-67
2024/01/23 12:32:50;;;;;;;13.57;7.05;;;;;;;;;;5051310;28;20167;-65
2024/01/23 12:35:16;;;;;;;9.73;6.00;;;;;;;;;;5046960;28;20361;-65
2024/01/23 12:37:42;;;;;;;14.73;6.20;;;;;;;;;;5048356;28;20033;-65
2024/01/23 12:40:11;;;;;;;12.10;7.40;;;;;;;;;;5047927;28;20440;-66
2024/01/23 12:42:43;;;;;;;17.20;6.80;;;;;;;;;;5047900;28;20080;-67
2024/01/23 12:45:13;;;;;;;10.60;4.95;;;;;;;;;;5047037;28;20045;-64
2024/01/23 12:47:43;;;;;;;12.15;4.88;;;;;;;;;;5045099;28;20064;-66
2024/01/23 12:50:17;;;;;;;10.38;4.43;;;;;;;;;;5048152;28;20485;-67
2024/01/23 12:52:45;;;;;;;12.27;5.75;;;;;;;;;;5047859;28;20420;-66
2024/01/23 12:55:13;;;;;;;6.85;4.28;;;;;;;;;;5049963;28;20045;-65
2024/01/23 12:57:42;;;;;;;9.48;4.35;;;;;;;;;;5049819;28;20045;-65
2024/01/23 13:00:09;;;;;;;12.18;4.15;;;;;;;;;;5044368;28;20057;-65
2024/01/23 13:02:35;;;;;;;14.88;4.88;;;;;;;;;;5051312;28;20056;-67
2024/01/23 13:05:01;;;;;;;6.95;4.10;;;;;;;;;;5049826;28;20488;-64
2024/01/23 13:07:31;;;;;;;8.15;4.70;;;;;;;;;;5049765;28;20057;-66
2024/01/23 13:09:57;;;;;;;15.07;4.97;;;;;;;;;;5041821;28;20099;-65
2024/01/23 13:12:23;;;;;;;12.82;5.03;;;;;;;;;;5044797;28;20056;-66
2024/01/23 13:14:51;;;;;;;9.43;4.53;;;;;;;;;;5043899;28;20040;-66
2024/01/23 13:17:21;;;;;;;14.30;4.63;;;;;;;;;;5048796;28;20507;-67
2024/01/23 13:19:47;;;;;;;8.05;4.68;;;;;;;;;;5049847;28;20493;-66
2024/01/23 13:22:14;;;;;;;10.93;4.90;;;;;;;;;;5046737;28;20049;-64
2024/01/23 13:24:40;;;;;;;10.00;4.75;;;;;;;;;;5047560;28;20053;-66
2024/01/23 13:27:07;;;;;;;7.03;3.50;;;;;;;;;;5036018;28;20361;-66
2024/01/23 13:29:37;;;;;;;6.15;3.42;;;;;;;;;;5047240;28;20041;-66
2024/01/23 13:32:07;;;;;;;8.73;2.85;;;;;;;;;;5044305;28;20475;-64
2024/01/23 13:34:33;;;;;;;8.43;3.60;;;;;;;;;;5047513;28;20132;-66
2024/01/23 13:37:01;;;;;;;4.97;3.00;;;;;;;;;;5049235;28;20053;-66
2024/01/23 13:39:29;;;;;;;7.72;3.05;;;;;;;;;;5046383;28;20357;-64
2024/01/23 13:41:59;;;;;;;4.32;2.17;;;;;;;;;;5062614;28;20041;-65
2024/01/23 13:44:25;;;;;;;5.65;2.17;;;;;;;;;;5043155;28;20041;-66
2024/01/23 13:46:52;;;;;;;2.75;1.75;;;;;;;;;;5047781;28;20049;-64
2024/01/23 13:49:18;;;;;;;3.80;1.77;;;;;;;;;;5044066;28;20052;-65
2024/01/23 13:51:44;;;;;;;8.13;2.30;;;;;;;;;;5044844;28;20056;-65
2024/01/23 13:54:10;;;;;;;2.33;1.50;;;;;;;;;;5047889;28;20114;-67
2024/01/23 13:56:36;;;;;;;4.80;1.80;;;;;;;;;;5046511;28;20393;-65
2024/01/23 13:59:05;;;;;;;2.35;1.42;;;;;;;;;;5049270;28;20053;-65
2024/01/23 14:01:33;;;;;;;2.90;1.65;;;;;;;;;;5047045;28;20036;-64
2024/01/23 14:04:01;;;;;;;1.52;1.20;;;;;;;;;;5047624;28;20045;-63
2024/01/23 14:06:27;;;;;;;3.92;2.20;;;;;;;;;;5043861;28;20080;-65
2024/01/23 14:08:57;;;;;;;2.97;1.80;;;;;;;;;;5046482;28;20059;-65
2024/01/23 14:11:23;;;;;;;3.88;1.85;;;;;;;;;;5045883;28;20052;-65
2024/01/23 14:13:51;;;;;;;1.85;1.38;;;;;;;;;;5046615;28;20091;-65
2024/01/23 14:16:19;;;;;;;3.47;1.50;;;;;;;;;;5044821;28;20458;-67
2024/01/23 14:18:46;;;;;;;2.25;1.05;;;;;;;;;;5044716;28;20060;-64
2024/01/23 14:21:13;;;;;;;2.55;1.60;;;;;;;;;;5044619;28;20508;-65
2024/01/23 14:23:41;;;;;;;4.53;1.80;;;;;;;;;;5045130;28;20079;-66
2024/01/23 14:26:08;;;;;;;5.53;1.75;;;;;;;;;;5046090;28;20072;-67
2024/01/23 14:28:35;;;;;;;3.78;2.00;;;;;;;;;;5046774;28;20110;-66
2024/01/23 14:31:02;;;;;;;6.43;2.17;;;;;;;;;;5041121;28;20327;-67
2024/01/23 14:33:29;;;;;;;3.17;2.30;;;;;;;;;;5050909;28;20260;-65
2024/01/23 14:35:57;;;;;;;4.80;2.42;;;;;;;;;;5050433;28;20154;-67
2024/01/23 14:38:25;;;;;;;5.32;2.15;;;;;;;;;;5050616;28;20105;-65
2024/01/23 14:40:52;;;;;;;3.28;2.35;;;;;;;;;;5060619;28;20118;-66
2024/01/23 14:43:20;;;;;;;10.43;2.78;;;;;;;;;;5045918;28;20463;-67
2024/01/23 14:45:47;;;;;;;5.85;3.10;;;;;;;;;;5046687;28;20567;-67
2024/01/23 14:48:16;;;;;;;5.43;3.40;;;;;;;;;;5065558;28;20129;-65
2024/01/23 14:50:43;;;;;;;5.60;3.20;;;;;;;;;;5046792;28;20054;-65
2024/01/23 14:53:09;;;;;;;6.15;2.70;;;;;;;;;;5046099;28;20049;-64
2024/01/23 14:55:35;;;;;;;4.43;2.28;;;;;;;;;;5043187;28;20154;-66
2024/01/23 14:58:03;;;;;;;3.67;2.30;;;;;;;;;;5049793;28;20558;-66
2024/01/23 15:00:30;;;;;;;5.32;2.30;;;;;;;;;;5039883;28;20489;-66
2024/01/23 15:02:56;;;;;;;4.75;1.92;;;;;;;;;;5046881;28;20082;-65
2024/01/23 15:05:24;;;;;;;7.93;2.13;;;;;;;;;;5047179;28;20067;-66
2024/01/23 15:07:50;;;;;;;4.57;2.13;;;;;;;;;;5050637;28;20064;-66
2024/01/23 15:10:17;;;;;;;5.63;2.20;;;;;;;;;;5049607;28;20057;-64
2024/01/23 15:12:44;;;;;;;4.03;2.03;;;;;;;;;;5048157;28;20402;-68
2024/01/23 15:15:10;;;;;;;6.05;2.67;;;;;;;;;;5044492;28;20103;-66
2024/01/23 15:17:37;;;;;;;3.83;2.20;;;;;;;;;;5052690;28;20277;-65
2024/01/23 15:20:04;;;;;;;8.23;2.50;;;;;;;;;;5045020;28;20043;-66
2024/01/23 15:22:30;;;;;;;3.83;1.80;;;;;;;;;;5051337;28;20572;-67
2024/01/23 15:24:57;;;;;;;5.05;1.88;;;;;;;;;;5050293;28;20110;-66
2024/01/23 15:27:23;;;;;;;3.50;1.48;;;;;;;;;;5049655;28;20053;-65
2024/01/23 15:29:51;;;;;;;5.97;2.97;;;;;;;;;;5050336;28;20132;-64
2024/01/23 15:32:17;;;;;;;3.67;2.38;;;;;;;;;;5048295;28;20057;-65
2024/01/23 15:34:43;;;;;;;7.32;1.63;;;;;;;;;;5047347;28;20177;-64
2024/01/23 15:37:10;;;;;;;5.13;1.88;;;;;;;;;;5048560;28;20049;-68
2024/01/23 15:39:36;;;;;;;3.92;1.80;;;;;;;;;;5048264;28;20517;-65
2024/01/23 15:42:02;;;;;;;4.78;1.70;;;;;;;;;;5047053;28;20053;-67
2024/01/23 15:44:30;;;;;;;4.47;1.70;;;;;;;;;;5043336;28;20045;-65